Boyd Deep Canyon Reserve, California Weather observations

Data are for 10 minute period ending at time listed.
 Day   Time   Solar   Ave.   Ave.  Ave.  Vector  Max.   Baro.   Total    
  of    of     Rad.   Air    Rel.  Wind   Wind   Wind  Press.  Precip.   
Year   Day            Temp.  Hum.  Speed  Dir.   Gust                    
2015   (PST)  Kw/m2    F      %     mph   deg.    mph    mb.     in.     
-------------------------------------------------------------------------
 244    3:50   0.00   76.4    29    1.4    22     2.4   973.9    0.00 
 244    4:00   0.00   76.8    28    0.5    18     1.8   974.1    0.00 
 244    4:10   0.00   76.9    28    0.9   229     2.0   974.0    0.00 
 244    4:20   0.00   77.2    28    1.3    74     4.0   974.1    0.00 
 244    4:30   0.00   77.1    28    1.0   219     2.9   974.2    0.00 
 244    4:40   0.00   76.9    27    1.5   209     3.3   974.2    0.00 
 244    4:50   0.00   76.9    27    0.4   295     2.2   974.3    0.00 
 244    5:00   0.00   76.4    28    3.4    52     5.5   974.3    0.00 
 244    5:10   0.00   76.2    28    1.4   273     3.1   974.5    0.00 
 244    5:20   0.00   76.3    27    0.8    10     3.4   974.7    0.00 
 244    5:30   0.00   77.3    26    2.3   208     4.4   974.7    0.00 
 244    5:40   0.00   76.8    26    1.9   216     4.2   974.7    0.00 
 244    5:50   0.00   76.0    28    2.4    58     4.7   974.9    0.00 
 244    6:00   0.00   76.7    28    1.2    82     2.9   975.0    0.00 
 244    6:10   0.00   75.9    29    1.2    71     3.6   975.2    0.00 
 244    6:20   0.00   75.7    30    1.9   222     3.2   975.4    0.00 
 244    6:30   0.00   75.7    30    1.8   250     3.7   975.5    0.00 
 244    6:40   0.01   75.1    31    3.0    45     4.2   975.8    0.00 
 244    6:50   0.01   75.9    31    1.5    95     3.8   976.0    0.00 
 244    7:00   0.02   75.8    31    0.6   262     2.2   976.1    0.00 
 244    7:10   0.03   75.7    31    0.1   180     1.2   976.2    0.00 
 244    7:20   0.12   77.0    30    0.4   173     1.4   976.3    0.00 
 244    7:30   0.16   80.8    27    0.1   188     1.0   976.4    0.00 
 244    7:40   0.21   81.1    27    1.0   184     2.8   976.5    0.00 
 244    7:50   0.24   82.5    26    0.5    54     2.0   976.5    0.00 
 244    8:00   0.27   82.9    25    1.7     7     3.2   976.5    0.00 
 244    8:10   0.32   82.7    26    2.8    12     7.2   976.4    0.00 
 244    8:20   0.37   83.5    30    6.0    54     9.3   976.3    0.00 
 244    8:30   0.41   84.2    26    5.2   342     7.4   976.2    0.00 
 244    8:40   0.44   83.5    28    6.8    12     9.8   976.2    0.00 
 244    8:50   0.45   82.7    27    5.9     6     8.8   976.3    0.00 
 244    9:00   0.48   83.1    27    5.3   349     8.0   976.4    0.00 
 244    9:10   0.53   84.0    27    4.3   355     7.5   976.5    0.00 
 244    9:20   0.55   84.5    25    4.2    12     7.3   976.5    0.00 
 244    9:30   0.59   85.2    24    3.1     5     6.1   976.6    0.00 
 244    9:40   0.62   86.5    21    3.2     4     6.1   976.7    0.00 
 244    9:50   0.65   86.9    21    2.7     2     5.6   976.8    0.00 
 244   10:00   0.68   87.7    21    2.9    21     5.8   976.9    0.00 
 244   10:10   0.71   88.2    21    4.6    12     9.0   976.8    0.00 
 244   10:20   0.73   88.1    22    5.8    13     8.9   976.9    0.00 
 244   10:30   0.76   88.8    22    5.5   353     9.1   977.0    0.00 
 244   10:40   0.78   89.3    22    5.7    10     9.6   977.0    0.00 
 244   10:50   0.80   89.3    22    4.3     3     7.5   977.0    0.00 
 244   11:00   0.82   90.1    22    2.4   360     7.7   977.0    0.00 
 244   11:10   0.84   90.1    25    3.3    31     6.7   977.0    0.00 
 244   11:20   0.85   90.7    26    3.0   291     7.2   976.9    0.00 
 244   11:30   0.86   90.8    27    6.2   359    10.9   976.8    0.00 
 244   11:40   0.88   90.8    27    3.9   317     8.5   976.6    0.00 
 244   11:50   0.89   91.0    29    3.8     6     8.8   976.4    0.00 
 244   12:00   0.89   90.8    33    5.5    71    12.1   976.3    0.00 
 244   12:10   0.89   90.6    36    5.3    79    11.8   976.3    0.00 
 244   12:20   0.90   90.5    38    3.8    28     8.5   976.2    0.00 
 244   12:30   0.90   91.1    40    5.8    53    14.7   976.1    0.00 
 244   12:40   0.89   91.7    40    3.7    12     8.4   976.0    0.00 
 244   12:50   0.90   92.1    40    6.8    60    14.1   976.0    0.00 
 244   13:00   0.90   91.5    42    3.5    84     9.2   975.9    0.00 
 244   13:10   0.89   92.7    40    4.5    58    12.5   975.7    0.00 
 244   13:20   0.85   92.9    40    7.5    50    14.0   975.6    0.00 
 244   13:30   0.88   91.8    42    7.5    69    14.3   975.6    0.00 
 244   13:40   0.88   92.6    40    5.6    35    11.7   975.4    0.00 
 244   13:50   0.87   92.5    39    8.1    46    14.4   975.3    0.00 
 244   14:00   0.85   92.6    39    6.4    50    14.1   975.3    0.00 
 244   14:10   0.85   93.9    37    5.2    75    10.1   975.1    0.00 
 244   14:20   0.83   93.6    38    4.8    46    11.8   975.1    0.00 
 244   14:30   0.79   94.9    36    6.0    44    12.1   974.9    0.00 
 244   14:40   0.81   94.8    36    4.1    89     9.6   974.8    0.00 
 244   14:50   0.87   95.1    36    5.8    48    12.3   974.7    0.00 
 244   15:00   0.75   94.8    37    6.2    42    13.7   974.6    0.00 
 244   15:10   0.54   94.0    38    6.0    48    15.9   974.4    0.00 
 244   15:20   0.76   94.6    37    6.7    71    12.4   974.3    0.00 
 244   15:30   0.42   94.6    36    5.1    63     9.8   974.2    0.00 
 244   15:40   0.18   93.8    37    6.6    64    10.4   974.1    0.00 
 244   15:50   0.19   93.2    37    3.7    80     8.2   974.0    0.00 
 244   16:00   0.23   93.7    36    4.4    70    11.4   973.9    0.00 
 244   16:10   0.22   93.8    36    6.0    62     9.0   973.8    0.00 
 244   16:20   0.20   93.2    38    5.9    73    11.5   973.7    0.00 
 244   16:30   0.16   93.1    38    5.0    62     9.6   973.6    0.00 
 244   16:40   0.16   93.3    37    6.7    54    10.8   973.5    0.00 
 244   16:50   0.16   93.1    38    5.7    72    10.2   973.5    0.00 
 244   17:00   0.14   92.9    38    5.8    76    10.7   973.5    0.00 
 244   17:10   0.12   92.8    38    5.3    78     9.1   973.4    0.00 
 244   17:20   0.11   92.9    38    4.3    67     8.0   973.4    0.00 
 244   17:30   0.12   92.6    38    5.0    82     8.9   973.4    0.00 
 244   17:40   0.11   92.8    36    5.1    72     8.7   973.3    0.00 
 244   17:50   0.09   92.5    36    5.5    66     9.7   973.4    0.00 
 244   18:00   0.08   92.7    36    4.9    68     8.6   973.4    0.00 
 244   18:10   0.08   92.4    36    5.7    58     9.1   973.4    0.00 
 244   18:20   0.07   92.2    37    5.2    64     8.1   973.4    0.00 
 244   18:30   0.05   92.1    37    3.9    69     6.8   973.4    0.00 
 244   18:40   0.03   92.0    37    4.0    59     7.5   973.4    0.00 
 244   18:50   0.01   91.9    37    3.3    63     6.3   973.4    0.00 
 244   19:00   0.01   91.9    37    1.8    63     5.0   973.4    0.00 
 244   19:10   0.00   91.7    38    1.5    79     2.9   973.4    0.00 
 244   19:20   0.00   91.6    38    1.0    87     2.8   973.4    0.00 
 244   19:30   0.00   91.5    38    1.0    95     2.2   973.5    0.00 
 244   19:40   0.00   91.5    38    0.4   103     1.8   973.5    0.00 
 244   19:50   0.00   91.4    38    1.2    23     4.7   973.6    0.00 
 244   20:00   0.00   91.0    39    4.1     2     6.8   973.7    0.00 
 244   20:10   0.00   90.9    39    1.9    54     4.9   973.9    0.00 
 244   20:20   0.00   91.1    28    3.2   151     6.0   974.1    0.00 
 244   20:30   0.00   91.2    25    3.7   182     7.2   974.2    0.00 
 244   20:40   0.00   91.0    23    3.1   352     5.1   974.4    0.00 
 244   20:50   0.00   90.5    23    2.3    23     4.2   974.5    0.00 
 244   21:00   0.00   90.0    23    3.0   352     4.7   974.6    0.00 
 244   21:10   0.00   89.6    23    2.1     9     3.7   974.7    0.00 
 244   21:20   0.00   89.1    23    1.8   345     5.5   974.8    0.00 
 244   21:30   0.00   88.4    23    4.9   343     7.3   974.9    0.00 
 244   21:40   0.00   87.6    24    3.8   341     6.6   974.9    0.00 
 244   21:50   0.00   87.2    24    1.1   345     3.4   975.0    0.00 
 244   22:00   0.00   86.9    24    1.0     6     4.7   975.0    0.00 
 244   22:10   0.00   86.3    25    3.6   358     5.7   975.0    0.00 
 244   22:20   0.00   85.5    26    3.6   351     5.6   975.0    0.00 
 244   22:30   0.00   84.9    27    1.7     8     4.4   975.0    0.00 
 244   22:40   0.00   84.5    28    0.8   113     1.5   975.0    0.00 
 244   22:50   0.00   84.3    28    1.0    72     2.4   975.0    0.00 
 244   23:00   0.00   84.1    28    1.4    56     2.8   975.0    0.00 
 244   23:10   0.00   83.9    28    2.1    58     2.9   975.1    0.00 
 244   23:20   0.00   83.5    29    2.9    51     4.4   975.2    0.00 
 244   23:30   0.00   82.8    31    2.2    45     4.2   975.3    0.00 
 244   23:40   0.00   82.2    32    0.6   126     1.8   975.3    0.00 
 244   23:50   0.00   82.2    32    1.0    83     2.7   975.3    0.00 
 245    0:00   0.00   81.9    33    1.5    37     2.1   975.4    0.00 
 245    0:10   0.00   81.7    33    1.5    31     2.9   975.5    0.00 
 245    0:20   0.00   81.4    34    2.3    46     3.9   975.5    0.00 
 245    0:30   0.00   81.0    35    4.9    56     6.1   975.5    0.00 
 245    0:40   0.00   80.5    36    3.6    65     5.4   975.6    0.00 
 245    0:50   0.00   80.2    37    3.7    56     5.6   975.7    0.00 
 245    1:00   0.00   79.8    39    2.9    73     4.5   975.8    0.00 
 245    1:10   0.00   79.7    38    2.0    52     3.7   975.6    0.00 
 245    1:20   0.00   79.5    39    1.1    48     2.5   975.5    0.00 
 245    1:30   0.00   79.4    37    2.0   357     7.4   975.4    0.00 
 245    1:40   0.00   83.9    23    7.7   183    14.3   975.2    0.00 
 245    1:50   0.00   86.5    18    9.7   184    15.9   975.2    0.00 
 245    2:00   0.00   86.4    16    8.4   182    13.3   975.2    0.00 
 245    2:10   0.00   86.6    15    8.8   177    16.5   975.2    0.00 
 245    2:20   0.00   81.4    35    3.3    67     6.6   975.2    0.00 
 245    2:30   0.00   78.0    43    4.5    77     7.0   975.3    0.00 
 245    2:40   0.00   77.6    43    2.9    60     5.8   975.4    0.00 
 245    2:50   0.00   77.4    44    2.6    75     4.7   975.4    0.00 
 245    3:00   0.00   77.3    44    1.8   356     7.5   975.4    0.00 
 245    3:10   0.00   77.3    43    4.4    78     7.2   975.4    0.00 
 245    3:20   0.00   77.1    44    3.2    40     5.8   975.5    0.00 
 245    3:30   0.00   76.7    44    3.0    65     5.1   975.5    0.00 
 245    3:40   0.00   76.7    44    1.9    52     3.7   975.5    0.00 

Return to Boyd Deep Canyon Reserve graphs page.


Western Regional Climate Center,wrcc@dri.edu